Time;durP1;ratioP1;P1;durP2;ratioP2;P2;SDS_P1;SDS_P2;PMS_P1;PMS_P2;Temp;Humidity;BMP_temperature;BMP_pressure;BME280_temperature;BME280_humidity;BME280_pressure;Samples;Min_cycle;Max_cycle;Signal;HPM_P1;HPM_P2
2022/11/25 00:01:46;;;;;;;2.28;0.85;;;;;;;;;;5049033;28;20044;-72
2022/11/25 00:04:14;;;;;;;0.68;0.55;;;;;;;;;;5049582;28;20059;-73
2022/11/25 00:06:43;;;;;;;0.55;0.55;;;;;;;;;;5049545;28;20421;-73
2022/11/25 00:09:12;;;;;;;1.33;0.63;;;;;;;;;;5044373;28;20490;-73
2022/11/25 00:11:43;;;;;;;0.30;0.30;;;;;;;;;;5046445;28;20053;-73
2022/11/25 00:14:13;;;;;;;0.60;0.60;;;;;;;;;;5050641;28;20057;-73
2022/11/25 00:16:41;;;;;;;1.00;0.65;;;;;;;;;;5051875;28;20045;-73
2022/11/25 00:19:15;;;;;;;2.20;0.55;;;;;;;;;;5051716;28;20052;-73
2022/11/25 00:21:43;;;;;;;0.85;0.82;;;;;;;;;;5047224;28;20394;-73
2022/11/25 00:24:13;;;;;;;0.75;0.75;;;;;;;;;;5049586;28;20131;-72
2022/11/25 00:26:42;;;;;;;0.60;0.60;;;;;;;;;;5044283;28;20049;-73
2022/11/25 00:29:11;;;;;;;0.82;0.70;;;;;;;;;;5050542;28;20045;-73
2022/11/25 00:31:40;;;;;;;0.73;0.73;;;;;;;;;;5049197;28;20401;-73
2022/11/25 00:34:11;;;;;;;0.75;0.60;;;;;;;;;;5043725;28;20045;-72
2022/11/25 00:36:40;;;;;;;3.00;1.67;;;;;;;;;;5050630;28;20552;-73
2022/11/25 00:39:11;;;;;;;0.50;0.50;;;;;;;;;;5039841;28;20053;-74
2022/11/25 00:44:35;;;;;;;1.13;0.73;;;;;;;;;;5030443;28;20121;-72
2022/11/25 00:47:06;;;;;;;0.30;0.30;;;;;;;;;;5027231;28;20076;-72
2022/11/25 00:49:35;;;;;;;0.30;0.30;;;;;;;;;;5041792;28;20041;-72
2022/11/25 00:52:03;;;;;;;1.17;0.82;;;;;;;;;;5049791;28;20067;-72
2022/11/25 00:54:32;;;;;;;0.73;0.68;;;;;;;;;;5049111;28;20049;-73
2022/11/25 00:57:00;;;;;;;1.10;0.75;;;;;;;;;;5047663;28;20071;-73
2022/11/25 00:59:30;;;;;;;1.38;1.05;;;;;;;;;;5045245;28;20079;-73
2022/11/25 01:01:58;;;;;;;1.65;1.10;;;;;;;;;;5045802;28;20055;-73
2022/11/25 01:04:27;;;;;;;0.63;0.63;;;;;;;;;;5049170;28;20586;-72
2022/11/25 01:06:58;;;;;;;0.98;0.77;;;;;;;;;;5051121;28;20045;-72
2022/11/25 01:09:27;;;;;;;0.65;0.65;;;;;;;;;;5047425;28;20045;-72
2022/11/25 01:11:55;;;;;;;0.55;0.52;;;;;;;;;;5046581;28;20041;-72
2022/11/25 01:14:24;;;;;;;0.32;0.28;;;;;;;;;;5049580;28;20497;-72
2022/11/25 01:16:53;;;;;;;0.98;0.98;;;;;;;;;;5050336;28;20519;-72
2022/11/25 01:19:22;;;;;;;0.75;0.43;;;;;;;;;;5044546;28;20516;-72
2022/11/25 01:21:50;;;;;;;1.70;0.75;;;;;;;;;;5048467;28;20049;-72
2022/11/25 01:24:19;;;;;;;0.30;0.30;;;;;;;;;;5048526;28;20060;-72
2022/11/25 01:26:47;;;;;;;0.20;0.20;;;;;;;;;;5050081;28;20055;-73
2022/11/25 01:29:17;;;;;;;0.40;0.40;;;;;;;;;;5048213;28;20051;-72
2022/11/25 01:31:45;;;;;;;1.25;0.40;;;;;;;;;;5046869;28;20053;-73
2022/11/25 01:34:16;;;;;;;0.35;0.35;;;;;;;;;;5049473;28;20515;-72
2022/11/25 01:36:45;;;;;;;0.38;0.38;;;;;;;;;;5049979;28;20049;-73
2022/11/25 01:39:16;;;;;;;0.20;0.20;;;;;;;;;;5049600;28;20072;-72
2022/11/25 01:41:45;;;;;;;0.28;0.28;;;;;;;;;;5047514;28;20081;-72
2022/11/25 01:44:14;;;;;;;1.75;0.70;;;;;;;;;;5046467;28;20053;-72
2022/11/25 01:46:48;;;;;;;3.63;0.22;;;;;;;;;;5046992;28;20783;-72
2022/11/25 01:49:19;;;;;;;0.50;0.50;;;;;;;;;;5052320;28;20504;-72
2022/11/25 01:51:51;;;;;;;0.22;0.22;;;;;;;;;;5050631;28;20064;-72
2022/11/25 01:54:21;;;;;;;0.43;0.43;;;;;;;;;;5048271;28;20049;-73
2022/11/25 01:56:50;;;;;;;0.50;0.45;;;;;;;;;;5047620;28;20045;-72
2022/11/25 01:59:19;;;;;;;0.35;0.35;;;;;;;;;;5034713;28;20054;-72
2022/11/25 02:01:47;;;;;;;0.30;0.30;;;;;;;;;;5025297;28;20056;-73
2022/11/25 02:04:17;;;;;;;0.13;0.13;;;;;;;;;;5024208;28;20465;-73
2022/11/25 02:06:50;;;;;;;0.35;0.35;;;;;;;;;;5029303;28;20049;-72
2022/11/25 02:09:19;;;;;;;0.40;0.40;;;;;;;;;;5033599;28;20053;-72
2022/11/25 02:11:48;;;;;;;0.28;0.28;;;;;;;;;;5040683;28;20045;-72
2022/11/25 02:14:18;;;;;;;0.25;0.25;;;;;;;;;;5049467;28;20056;-73
2022/11/25 02:16:47;;;;;;;1.00;0.55;;;;;;;;;;5045903;28;20045;-72
2022/11/25 02:19:21;;;;;;;0.47;0.47;;;;;;;;;;5035344;28;20553;-73
2022/11/25 02:21:53;;;;;;;0.10;0.10;;;;;;;;;;5022270;28;20057;-73
2022/11/25 02:24:25;;;;;;;0.25;0.25;;;;;;;;;;5028688;28;20081;-73
2022/11/25 02:26:55;;;;;;;1.90;0.73;;;;;;;;;;5028576;28;20058;-72
2022/11/25 02:29:23;;;;;;;0.77;0.77;;;;;;;;;;5035134;28;20045;-73
2022/11/25 02:31:51;;;;;;;0.93;0.77;;;;;;;;;;5053057;28;20057;-72
2022/11/25 02:34:20;;;;;;;0.65;0.45;;;;;;;;;;5040876;28;20060;-73
2022/11/25 02:36:49;;;;;;;0.98;0.50;;;;;;;;;;5053523;28;20564;-74
2022/11/25 02:39:18;;;;;;;0.20;0.20;;;;;;;;;;5051146;28;20049;-72
2022/11/25 02:41:49;;;;;;;0.28;0.28;;;;;;;;;;5053584;28;20056;-74
2022/11/25 02:44:19;;;;;;;0.20;0.20;;;;;;;;;;5049435;28;20148;-74
2022/11/25 02:46:47;;;;;;;0.55;0.55;;;;;;;;;;5050120;28;20081;-73
2022/11/25 02:49:16;;;;;;;0.13;0.13;;;;;;;;;;5050368;28;20043;-72
2022/11/25 02:51:45;;;;;;;0.20;0.20;;;;;;;;;;5053198;28;20057;-73
2022/11/25 02:54:14;;;;;;;0.57;0.50;;;;;;;;;;5050472;28;20044;-73
2022/11/25 02:56:43;;;;;;;0.20;0.20;;;;;;;;;;5049531;28;20092;-73
2022/11/25 02:59:11;;;;;;;0.30;0.30;;;;;;;;;;5036108;28;20481;-73
2022/11/25 03:01:41;;;;;;;0.20;0.20;;;;;;;;;;5033113;28;20057;-73
2022/11/25 03:04:09;;;;;;;0.20;0.20;;;;;;;;;;5026555;28;20406;-72
2022/11/25 03:06:38;;;;;;;0.52;0.52;;;;;;;;;;5026527;28;20049;-72
2022/11/25 03:09:06;;;;;;;0.20;0.20;;;;;;;;;;5034157;28;20049;-73
2022/11/25 03:14:19;;;;;;;;;;;;;;;;;;5019958;28;20072;-72
2022/11/25 03:16:49;;;;;;;0.20;0.20;;;;;;;;;;5042357;28;19924;-73
2022/11/25 03:19:17;;;;;;;0.57;0.57;;;;;;;;;;5051142;28;20080;-73
2022/11/25 03:21:46;;;;;;;0.40;0.40;;;;;;;;;;5052168;28;20053;-73
2022/11/25 03:24:14;;;;;;;0.20;0.20;;;;;;;;;;5050904;28;20053;-72
2022/11/25 03:26:42;;;;;;;0.30;0.30;;;;;;;;;;5060753;28;20052;-72
2022/11/25 03:29:11;;;;;;;0.95;0.63;;;;;;;;;;5037793;28;20060;-73
2022/11/25 03:31:39;;;;;;;0.20;0.20;;;;;;;;;;5032402;28;20513;-73
2022/11/25 03:34:09;;;;;;;0.73;0.73;;;;;;;;;;5024216;28;20076;-73
2022/11/25 03:36:38;;;;;;;0.25;0.25;;;;;;;;;;5031007;28;20049;-73
2022/11/25 03:39:06;;;;;;;1.25;1.15;;;;;;;;;;5029860;28;20486;-73
2022/11/25 03:41:34;;;;;;;4.47;0.43;;;;;;;;;;5031113;28;20045;-73
2022/11/25 03:44:03;;;;;;;0.30;0.30;;;;;;;;;;5033198;28;20474;-73
2022/11/25 03:46:31;;;;;;;0.38;0.30;;;;;;;;;;5025560;28;20085;-73
2022/11/25 03:48:59;;;;;;;1.55;0.75;;;;;;;;;;5038086;28;20049;-72
2022/11/25 03:51:29;;;;;;;0.20;0.20;;;;;;;;;;5051160;28;20052;-73
2022/11/25 03:53:57;;;;;;;0.20;0.20;;;;;;;;;;5044148;28;20092;-72
2022/11/25 03:56:26;;;;;;;0.17;0.17;;;;;;;;;;5038838;28;20163;-73
2022/11/25 03:58:54;;;;;;;0.88;0.88;;;;;;;;;;5048045;28;20405;-73
2022/11/25 04:01:22;;;;;;;0.20;0.20;;;;;;;;;;5050712;28;20053;-73
2022/11/25 04:03:51;;;;;;;0.20;0.20;;;;;;;;;;5049026;28;20473;-72
2022/11/25 04:06:20;;;;;;;0.85;0.52;;;;;;;;;;5048154;28;20128;-73
2022/11/25 04:08:50;;;;;;;0.65;0.57;;;;;;;;;;5032964;28;20041;-73
2022/11/25 04:11:18;;;;;;;0.20;0.20;;;;;;;;;;5032075;28;20049;-73
2022/11/25 04:13:46;;;;;;;0.50;0.50;;;;;;;;;;5030538;28;20049;-72
2022/11/25 04:16:17;;;;;;;0.65;0.65;;;;;;;;;;5031239;28;20498;-72
2022/11/25 04:18:45;;;;;;;0.13;0.13;;;;;;;;;;5023352;28;20092;-73
2022/11/25 04:21:14;;;;;;;0.17;0.17;;;;;;;;;;5029996;28;20053;-73
2022/11/25 04:23:42;;;;;;;0.28;0.28;;;;;;;;;;5026231;28;20408;-73
2022/11/25 04:26:12;;;;;;;0.40;0.40;;;;;;;;;;5032174;28;20054;-73
2022/11/25 04:28:40;;;;;;;0.20;0.20;;;;;;;;;;5029138;28;20077;-73
2022/11/25 04:31:09;;;;;;;0.10;0.10;;;;;;;;;;5028478;28;20049;-73
2022/11/25 04:33:38;;;;;;;0.30;0.30;;;;;;;;;;5023388;28;20073;-73
2022/11/25 04:36:06;;;;;;;0.20;0.20;;;;;;;;;;5030725;28;20045;-73
2022/11/25 04:38:34;;;;;;;0.30;0.30;;;;;;;;;;5029760;28;20053;-73
2022/11/25 04:41:03;;;;;;;0.50;0.50;;;;;;;;;;5056153;28;20056;-73
2022/11/25 04:43:33;;;;;;;1.13;1.10;;;;;;;;;;5047748;28;20501;-73
2022/11/25 04:46:01;;;;;;;3.10;1.13;;;;;;;;;;5047631;28;20067;-73
2022/11/25 04:48:45;;;;;;;0.28;0.28;;;;;;;;;;5040367;28;20045;-72
2022/11/25 04:51:13;;;;;;;0.35;0.35;;;;;;;;;;5049376;28;20466;-73
2022/11/25 04:53:42;;;;;;;0.28;0.28;;;;;;;;;;5049574;28;20057;-73
2022/11/25 04:56:12;;;;;;;0.50;0.50;;;;;;;;;;5046627;28;20041;-73
2022/11/25 05:01:28;;;;;;;0.30;0.30;;;;;;;;;;5049185;28;20052;-73
2022/11/25 05:03:56;;;;;;;0.73;0.60;;;;;;;;;;5047630;28;20414;-73
2022/11/25 05:06:25;;;;;;;0.20;0.20;;;;;;;;;;5045946;28;20063;-73
2022/11/25 05:08:53;;;;;;;0.30;0.30;;;;;;;;;;5045269;28;20045;-73
2022/11/25 05:11:21;;;;;;;1.00;0.30;;;;;;;;;;5037755;28;20041;-73
2022/11/25 05:13:51;;;;;;;0.40;0.40;;;;;;;;;;5047067;28;20049;-73
2022/11/25 05:16:20;;;;;;;0.30;0.30;;;;;;;;;;5047455;28;20076;-73
2022/11/25 05:18:48;;;;;;;0.10;0.10;;;;;;;;;;5046731;28;20600;-74
2022/11/25 05:21:16;;;;;;;0.30;0.30;;;;;;;;;;5040276;28;20051;-73
2022/11/25 05:23:45;;;;;;;0.40;0.40;;;;;;;;;;5043232;28;20088;-73
2022/11/25 05:26:13;;;;;;;0.40;0.40;;;;;;;;;;5047431;28;20052;-73
2022/11/25 05:28:41;;;;;;;0.60;0.60;;;;;;;;;;5048758;28;20342;-73
2022/11/25 05:31:11;;;;;;;0.20;0.20;;;;;;;;;;5048172;28;20045;-73
2022/11/25 05:33:40;;;;;;;0.30;0.30;;;;;;;;;;5047272;28;20073;-73
2022/11/25 05:36:08;;;;;;;0.30;0.30;;;;;;;;;;5043848;28;20154;-73
2022/11/25 05:38:37;;;;;;;0.20;0.20;;;;;;;;;;5046162;28;20045;-73
2022/11/25 05:41:06;;;;;;;0.30;0.30;;;;;;;;;;5041566;28;20049;-73
2022/11/25 05:43:35;;;;;;;0.10;0.10;;;;;;;;;;5050727;28;20037;-73
2022/11/25 05:46:05;;;;;;;0.30;0.30;;;;;;;;;;5054531;28;20059;-73
2022/11/25 05:48:35;;;;;;;0.10;0.10;;;;;;;;;;5044178;28;20055;-73
2022/11/25 05:51:04;;;;;;;0.10;0.10;;;;;;;;;;5042639;28;20060;-73
2022/11/25 05:53:33;;;;;;;0.25;0.25;;;;;;;;;;5045908;28;20049;-72
2022/11/25 05:56:02;;;;;;;0.10;0.10;;;;;;;;;;5050788;28;20127;-73
2022/11/25 05:58:31;;;;;;;0.20;0.20;;;;;;;;;;5051513;28;20132;-73
2022/11/25 06:01:00;;;;;;;0.10;0.10;;;;;;;;;;5039845;28;20549;-74
2022/11/25 06:03:29;;;;;;;0.75;0.32;;;;;;;;;;5041611;28;20052;-73
2022/11/25 06:06:00;;;;;;;0.20;0.20;;;;;;;;;;5044442;28;20064;-73
2022/11/25 06:08:28;;;;;;;0.40;0.40;;;;;;;;;;5041432;28;20045;-73
2022/11/25 06:10:57;;;;;;;0.20;0.20;;;;;;;;;;5029021;28;20057;-74
2022/11/25 06:13:26;;;;;;;0.30;0.30;;;;;;;;;;5024663;28;20055;-73
2022/11/25 06:15:54;;;;;;;0.38;0.30;;;;;;;;;;5026943;28;20050;-73
2022/11/25 06:18:22;;;;;;;0.20;0.20;;;;;;;;;;5027054;28;20048;-73
2022/11/25 06:20:56;;;;;;;0.20;0.20;;;;;;;;;;5045018;28;20060;-73
2022/11/25 06:23:26;;;;;;;0.15;0.15;;;;;;;;;;5042180;28;20049;-74
2022/11/25 06:25:54;;;;;;;0.25;0.25;;;;;;;;;;5042536;28;20053;-74
2022/11/25 06:28:23;;;;;;;0.20;0.20;;;;;;;;;;5044332;28;20144;-74
2022/11/25 06:30:51;;;;;;;0.30;0.30;;;;;;;;;;5048702;28;20055;-73
2022/11/25 06:33:19;;;;;;;0.32;0.32;;;;;;;;;;5055344;28;20053;-74
2022/11/25 06:35:48;;;;;;;0.60;0.60;;;;;;;;;;5049417;28;20053;-74
2022/11/25 06:38:16;;;;;;;0.38;0.38;;;;;;;;;;5052335;28;20080;-74
2022/11/25 06:40:46;;;;;;;0.20;0.20;;;;;;;;;;5054695;28;20052;-73
2022/11/25 06:43:14;;;;;;;0.50;0.50;;;;;;;;;;5048320;28;20056;-73
2022/11/25 06:45:43;;;;;;;0.70;0.70;;;;;;;;;;5048719;28;20053;-74
2022/11/25 06:48:11;;;;;;;0.60;0.57;;;;;;;;;;5050213;28;20143;-74
2022/11/25 06:50:39;;;;;;;0.43;0.43;;;;;;;;;;5046859;28;20041;-74
2022/11/25 06:53:08;;;;;;;0.75;0.68;;;;;;;;;;5048030;28;20461;-74
2022/11/25 06:55:36;;;;;;;0.25;0.25;;;;;;;;;;5054028;28;20172;-74
2022/11/25 06:58:06;;;;;;;0.40;0.30;;;;;;;;;;5051228;28;20103;-74
2022/11/25 07:00:54;;;;;;;0.30;0.30;;;;;;;;;;5048593;28;20045;-73
2022/11/25 07:03:22;;;;;;;0.30;0.30;;;;;;;;;;5052270;28;20398;-73
2022/11/25 07:05:51;;;;;;;0.20;0.20;;;;;;;;;;5051108;28;20052;-73
2022/11/25 07:08:23;;;;;;;0.95;0.40;;;;;;;;;;5045725;28;20056;-73
2022/11/25 07:10:55;;;;;;;0.15;0.15;;;;;;;;;;5049547;28;20080;-73
2022/11/25 07:13:25;;;;;;;0.20;0.20;;;;;;;;;;5045357;28;20136;-74
2022/11/25 07:15:53;;;;;;;1.58;0.77;;;;;;;;;;5052782;28;20049;-74
2022/11/25 07:18:22;;;;;;;0.30;0.30;;;;;;;;;;5051890;28;20511;-73
2022/11/25 07:20:51;;;;;;;0.50;0.50;;;;;;;;;;5052422;28;20076;-74
2022/11/25 07:23:19;;;;;;;0.50;0.25;;;;;;;;;;5051871;28;20061;-73
2022/11/25 07:25:48;;;;;;;0.65;0.30;;;;;;;;;;5046624;28;20091;-73
2022/11/25 07:28:16;;;;;;;0.50;0.50;;;;;;;;;;5046937;28;20212;-73
2022/11/25 07:30:46;;;;;;;2.00;0.70;;;;;;;;;;5045592;28;20080;-73
2022/11/25 07:33:35;;;;;;;0.20;0.20;;;;;;;;;;5047014;28;20418;-73
2022/11/25 07:36:04;;;;;;;0.43;0.43;;;;;;;;;;5052084;28;20048;-73
2022/11/25 07:38:33;;;;;;;0.45;0.45;;;;;;;;;;5046379;28;20494;-74
2022/11/25 07:41:06;;;;;;;0.38;0.38;;;;;;;;;;5055076;28;20553;-74
2022/11/25 07:43:34;;;;;;;0.40;0.40;;;;;;;;;;5050771;28;20082;-74
2022/11/25 07:46:12;;;;;;;0.93;0.63;;;;;;;;;;5038497;28;20516;-74
2022/11/25 07:48:41;;;;;;;0.38;0.38;;;;;;;;;;5039523;28;20494;-74
2022/11/25 07:51:16;;;;;;;1.45;0.65;;;;;;;;;;5051399;28;20485;-74
2022/11/25 07:53:45;;;;;;;0.50;0.50;;;;;;;;;;5050317;28;20553;-74
2022/11/25 07:56:14;;;;;;;0.30;0.30;;;;;;;;;;5051404;28;20053;-74
2022/11/25 07:58:43;;;;;;;0.10;0.10;;;;;;;;;;5046681;28;20111;-74
2022/11/25 08:01:15;;;;;;;0.22;0.22;;;;;;;;;;5051437;28;20454;-74
2022/11/25 08:03:45;;;;;;;0.52;0.52;;;;;;;;;;5041092;28;20052;-74
2022/11/25 08:06:14;;;;;;;0.43;0.43;;;;;;;;;;5048391;28;20045;-74
2022/11/25 08:08:43;;;;;;;0.88;0.30;;;;;;;;;;5048175;28;20566;-74
2022/11/25 08:11:13;;;;;;;2.35;1.45;;;;;;;;;;5031575;28;20060;-74
2022/11/25 08:13:42;;;;;;;0.20;0.20;;;;;;;;;;5044527;28;20049;-74
2022/11/25 08:16:12;;;;;;;0.40;0.40;;;;;;;;;;5050664;28;20057;-74
2022/11/25 08:18:42;;;;;;;0.30;0.30;;;;;;;;;;5048576;28;20127;-74
2022/11/25 08:21:11;;;;;;;0.40;0.40;;;;;;;;;;5050483;28;20059;-74
2022/11/25 08:23:42;;;;;;;0.25;0.25;;;;;;;;;;5050191;28;20501;-74
2022/11/25 08:26:12;;;;;;;0.30;0.30;;;;;;;;;;5055511;28;20070;-74
2022/11/25 08:28:42;;;;;;;0.40;0.40;;;;;;;;;;5039035;28;20092;-74
2022/11/25 08:31:11;;;;;;;0.32;0.32;;;;;;;;;;5049648;28;20118;-74
2022/11/25 08:33:42;;;;;;;0.32;0.32;;;;;;;;;;5054982;28;20492;-74
2022/11/25 08:36:11;;;;;;;0.20;0.20;;;;;;;;;;5051161;28;20405;-74
2022/11/25 08:38:41;;;;;;;0.32;0.32;;;;;;;;;;5043056;28;20578;-74
2022/11/25 08:41:10;;;;;;;0.60;0.60;;;;;;;;;;5033808;28;20456;-74
2022/11/25 08:43:39;;;;;;;0.30;0.30;;;;;;;;;;5031292;28;20088;-74
2022/11/25 08:46:08;;;;;;;0.80;0.47;;;;;;;;;;5030961;28;20050;-74
2022/11/25 08:48:37;;;;;;;0.20;0.20;;;;;;;;;;5026073;28;20469;-74
2022/11/25 08:51:10;;;;;;;0.30;0.30;;;;;;;;;;5048672;28;20497;-74
2022/11/25 08:53:39;;;;;;;0.45;0.43;;;;;;;;;;5043134;28;20118;-74
2022/11/25 08:56:09;;;;;;;2.22;0.75;;;;;;;;;;5048013;28;20051;-74
2022/11/25 08:58:37;;;;;;;0.43;0.38;;;;;;;;;;5044449;28;20037;-74
2022/11/25 09:01:07;;;;;;;0.20;0.20;;;;;;;;;;5032344;28;20530;-74
2022/11/25 09:03:36;;;;;;;0.32;0.32;;;;;;;;;;5035843;28;20128;-74
2022/11/25 09:06:06;;;;;;;0.80;0.50;;;;;;;;;;5019853;28;20041;-74
2022/11/25 09:08:38;;;;;;;0.40;0.40;;;;;;;;;;5027644;28;20431;-73
2022/11/25 09:11:07;;;;;;;0.30;0.30;;;;;;;;;;5028012;28;20041;-74
2022/11/25 09:13:36;;;;;;;0.30;0.30;;;;;;;;;;5024592;28;20050;-75
2022/11/25 09:16:05;;;;;;;0.35;0.35;;;;;;;;;;5022594;28;20053;-74
2022/11/25 09:18:35;;;;;;;0.57;0.40;;;;;;;;;;5031893;28;20133;-75
2022/11/25 09:21:09;;;;;;;0.20;0.20;;;;;;;;;;5048823;28;20056;-75
2022/11/25 09:23:39;;;;;;;0.47;0.40;;;;;;;;;;5038356;28;20048;-75
2022/11/25 09:26:08;;;;;;;0.20;0.20;;;;;;;;;;5039721;28;20045;-73
2022/11/25 09:28:37;;;;;;;0.50;0.50;;;;;;;;;;5046094;28;20087;-73
2022/11/25 09:31:10;;;;;;;1.42;0.82;;;;;;;;;;5048422;28;20119;-73
2022/11/25 09:33:38;;;;;;;1.50;0.70;;;;;;;;;;5046185;28;20409;-73
2022/11/25 09:36:07;;;;;;;0.20;0.20;;;;;;;;;;5046543;28;20055;-73
2022/11/25 09:38:36;;;;;;;0.63;0.63;;;;;;;;;;5049761;28;20052;-73
2022/11/25 09:46:40;;;;;;;0.30;0.30;;;;;;;;;;5053010;28;20115;-73
2022/11/25 09:47:00;;;;;;;9.68;0.50;;;;;;;;;;5043359;28;20080;-74
2022/11/25 09:49:37;;;;;;;0.60;0.60;;;;;;;;;;5053313;28;20088;-73
2022/11/25 09:52:11;;;;;;;0.30;0.30;;;;;;;;;;5053972;28;20417;-74
2022/11/25 09:54:42;;;;;;;1.77;0.87;;;;;;;;;;5053655;28;20435;-74
2022/11/25 09:57:23;;;;;;;0.60;0.60;;;;;;;;;;5044365;28;20666;-73
2022/11/25 10:00:00;;;;;;;1.08;0.75;;;;;;;;;;5052801;28;20114;-74
2022/11/25 10:02:30;;;;;;;0.52;0.52;;;;;;;;;;5051863;28;20447;-73
2022/11/25 10:05:02;;;;;;;0.63;0.63;;;;;;;;;;5053249;28;20055;-73
2022/11/25 10:07:34;;;;;;;4.45;0.93;;;;;;;;;;5053915;28;20505;-73
2022/11/25 10:10:05;;;;;;;0.73;0.70;;;;;;;;;;5052807;28;20056;-73
2022/11/25 10:12:38;;;;;;;1.25;0.80;;;;;;;;;;5051718;28;20060;-73
2022/11/25 10:15:12;;;;;;;3.00;0.60;;;;;;;;;;5052499;28;20080;-73
2022/11/25 10:17:44;;;;;;;0.20;0.20;;;;;;;;;;5053000;28;20057;-73
2022/11/25 10:20:15;;;;;;;1.05;0.73;;;;;;;;;;5039026;28;20512;-73
2022/11/25 10:22:45;;;;;;;0.50;0.50;;;;;;;;;;5046224;28;20171;-73
2022/11/25 10:25:15;;;;;;;0.73;0.35;;;;;;;;;;5047675;28;20084;-73
2022/11/25 10:27:48;;;;;;;0.95;0.52;;;;;;;;;;5051346;28;20053;-73
2022/11/25 10:30:18;;;;;;;1.13;0.28;;;;;;;;;;5050458;28;20501;-73
2022/11/25 10:32:50;;;;;;;0.52;0.52;;;;;;;;;;5045682;28;20081;-73
2022/11/25 10:35:25;;;;;;;0.50;0.50;;;;;;;;;;5047696;28;20041;-73
2022/11/25 10:37:56;;;;;;;0.55;0.55;;;;;;;;;;5039849;28;20402;-73
2022/11/25 10:40:25;;;;;;;0.60;0.60;;;;;;;;;;5027243;28;20045;-71
2022/11/25 10:42:55;;;;;;;5.45;0.70;;;;;;;;;;5031958;28;20127;-74
2022/11/25 10:45:30;;;;;;;0.30;0.30;;;;;;;;;;5021246;28;20049;-74
2022/11/25 10:48:14;;;;;;;0.28;0.28;;;;;;;;;;5029540;28;20049;-73
2022/11/25 10:50:50;;;;;;;0.38;0.38;;;;;;;;;;5036083;28;20057;-74
2022/11/25 10:53:21;;;;;;;0.10;0.10;;;;;;;;;;5050243;28;20037;-74
2022/11/25 10:56:01;;;;;;;0.25;0.25;;;;;;;;;;5051816;28;20137;-74
2022/11/25 10:58:35;;;;;;;1.40;0.57;;;;;;;;;;5051904;28;20123;-74
2022/11/25 11:01:05;;;;;;;0.20;0.20;;;;;;;;;;5052386;28;20206;-73
2022/11/25 11:03:35;;;;;;;0.73;0.50;;;;;;;;;;5050060;28;20045;-73
2022/11/25 11:06:04;;;;;;;0.98;0.50;;;;;;;;;;5049262;28;20041;-73
2022/11/25 11:08:37;;;;;;;5.88;0.40;;;;;;;;;;5049545;28;20049;-73
2022/11/25 11:11:15;;;;;;;0.40;0.40;;;;;;;;;;5040834;28;20038;-74
2022/11/25 11:13:45;;;;;;;0.43;0.43;;;;;;;;;;5047197;28;20075;-73
2022/11/25 11:16:28;;;;;;;0.30;0.30;;;;;;;;;;5050281;28;20041;-74
2022/11/25 11:18:58;;;;;;;0.65;0.25;;;;;;;;;;5043979;28;20140;-73
2022/11/25 11:21:30;;;;;;;0.82;0.30;;;;;;;;;;5052532;28;20095;-73
2022/11/25 11:23:59;;;;;;;0.47;0.30;;;;;;;;;;5050778;28;20052;-73
2022/11/25 11:26:29;;;;;;;0.22;0.22;;;;;;;;;;5042681;28;20406;-73
2022/11/25 11:29:00;;;;;;;0.10;0.10;;;;;;;;;;5044123;28;20549;-74
2022/11/25 11:31:32;;;;;;;0.10;0.10;;;;;;;;;;5024159;28;20516;-74
2022/11/25 11:34:06;;;;;;;0.75;0.30;;;;;;;;;;5031469;28;20064;-74
2022/11/25 11:36:38;;;;;;;0.60;0.30;;;;;;;;;;5027222;28;20073;-74
2022/11/25 11:39:18;;;;;;;0.20;0.20;;;;;;;;;;5037380;28;20048;-74
2022/11/25 11:41:48;;;;;;;0.45;0.43;;;;;;;;;;5051869;28;20053;-74
2022/11/25 11:44:22;;;;;;;1.90;0.28;;;;;;;;;;5051679;28;20075;-74
2022/11/25 11:46:59;;;;;;;0.22;0.22;;;;;;;;;;5045895;28;20041;-74
2022/11/25 11:49:45;;;;;;;0.77;0.32;;;;;;;;;;5047741;28;20064;-74
2022/11/25 11:52:19;;;;;;;1.45;0.50;;;;;;;;;;5044763;28;20052;-74
2022/11/25 11:54:53;;;;;;;0.35;0.35;;;;;;;;;;5048468;28;20053;-74
2022/11/25 11:57:29;;;;;;;0.10;0.10;;;;;;;;;;5045344;28;20361;-74
2022/11/25 12:00:03;;;;;;;0.30;0.28;;;;;;;;;;5047183;28;20289;-72
2022/11/25 12:02:39;;;;;;;0.80;0.40;;;;;;;;;;5048591;28;20045;-77
2022/11/25 12:05:15;;;;;;;1.20;0.45;;;;;;;;;;5043727;28;20053;-74
2022/11/25 12:07:48;;;;;;;0.80;0.40;;;;;;;;;;5039053;28;20512;-77
2022/11/25 12:10:20;;;;;;;0.10;0.10;;;;;;;;;;5038216;28;20041;-71
2022/11/25 12:12:51;;;;;;;1.55;0.43;;;;;;;;;;5041256;28;20060;-72
2022/11/25 12:15:23;;;;;;;2.08;0.50;;;;;;;;;;5043898;28;20052;-72
2022/11/25 12:17:54;;;;;;;1.33;0.63;;;;;;;;;;5037165;28;20046;-72
2022/11/25 12:20:29;;;;;;;0.20;0.20;;;;;;;;;;5029700;28;20045;-72
2022/11/25 12:23:01;;;;;;;0.10;0.10;;;;;;;;;;5044896;28;20087;-71
2022/11/25 12:25:32;;;;;;;0.98;0.20;;;;;;;;;;5042008;28;20564;-72
2022/11/25 12:28:02;;;;;;;0.30;0.30;;;;;;;;;;5038705;28;20155;-72
2022/11/25 12:30:35;;;;;;;3.35;0.40;;;;;;;;;;5046345;28;20507;-72
2022/11/25 12:33:06;;;;;;;0.63;0.38;;;;;;;;;;5029889;28;20053;-72
2022/11/25 12:35:40;;;;;;;0.30;0.30;;;;;;;;;;5036737;28;20045;-72
2022/11/25 12:38:15;;;;;;;0.10;0.10;;;;;;;;;;5038541;28;20044;-71
2022/11/25 12:40:47;;;;;;;1.48;0.43;;;;;;;;;;5024900;28;20071;-71
2022/11/25 12:43:23;;;;;;;0.30;0.13;;;;;;;;;;5026741;28;20048;-71
2022/11/25 12:45:59;;;;;;;0.10;0.10;;;;;;;;;;5012821;28;20068;-70
2022/11/25 12:48:28;;;;;;;3.00;0.40;;;;;;;;;;5017040;28;20045;-72
2022/11/25 12:51:03;;;;;;;0.30;0.20;;;;;;;;;;5042304;28;20110;-71
2022/11/25 12:53:32;;;;;;;;;;;;;;;;;;5041356;28;20048;-72
2022/11/25 12:56:03;;;;;;;0.98;0.25;;;;;;;;;;5037595;28;19932;-72
2022/11/25 12:58:39;;;;;;;5.18;0.50;;;;;;;;;;5041686;28;20514;-72
2022/11/25 13:01:26;;;;;;;0.20;0.20;;;;;;;;;;5018424;28;20080;-72
2022/11/25 13:04:12;;;;;;;0.30;0.30;;;;;;;;;;5019038;28;20124;-73
2022/11/25 13:07:06;;;;;;;0.28;0.28;;;;;;;;;;4993459;28;20498;-73
2022/11/25 13:09:47;;;;;;;0.10;0.10;;;;;;;;;;5043182;28;20053;-73
2022/11/25 13:12:22;;;;;;;0.47;0.47;;;;;;;;;;5040425;28;20042;-72
2022/11/25 13:15:02;;;;;;;0.20;0.10;;;;;;;;;;5057907;28;20084;-72
2022/11/25 13:17:36;;;;;;;0.20;0.20;;;;;;;;;;5048693;28;20098;-72
2022/11/25 13:20:32;;;;;;;0.20;0.20;;;;;;;;;;5031230;28;20505;-72
2022/11/25 13:23:02;;;;;;;0.10;0.10;;;;;;;;;;5028254;28;20049;-72
2022/11/25 13:25:34;;;;;;;0.38;0.32;;;;;;;;;;5026191;28;20646;-72
2022/11/25 13:28:04;;;;;;;0.20;0.10;;;;;;;;;;5032545;28;20045;-72
2022/11/25 13:30:37;;;;;;;8.05;0.55;;;;;;;;;;5052182;28;20383;-73
2022/11/25 13:33:25;;;;;;;0.88;0.30;;;;;;;;;;5041588;28;20095;-72
2022/11/25 13:35:56;;;;;;;6.22;0.40;;;;;;;;;;5049144;28;20052;-72
2022/11/25 13:38:48;;;;;;;0.47;0.17;;;;;;;;;;5049511;28;20094;-72
2022/11/25 13:41:34;;;;;;;4.03;0.60;;;;;;;;;;5049718;28;20045;-72
2022/11/25 13:44:05;;;;;;;0.22;0.10;;;;;;;;;;5051352;28;20052;-72
2022/11/25 13:46:44;;;;;;;0.63;0.25;;;;;;;;;;5045731;28;20402;-72
2022/11/25 13:49:24;;;;;;;0.10;0.10;;;;;;;;;;5048524;28;20558;-72
2022/11/25 13:51:55;;;;;;;1.27;0.30;;;;;;;;;;5036877;28;20056;-72
2022/11/25 13:54:27;;;;;;;0.20;0.20;;;;;;;;;;5049393;28;20729;-72
2022/11/25 13:57:15;;;;;;;0.20;0.20;;;;;;;;;;5046710;28;20072;-72
2022/11/25 13:59:52;;;;;;;0.40;0.30;;;;;;;;;;5039400;28;20048;-72
2022/11/25 14:02:40;;;;;;;0.20;0.20;;;;;;;;;;5047839;28;20045;-72
2022/11/25 14:05:24;;;;;;;2.13;0.30;;;;;;;;;;5048940;28;20045;-72
2022/11/25 14:08:06;;;;;;;0.82;0.52;;;;;;;;;;5044953;28;20461;-72
2022/11/25 14:10:44;;;;;;;0.68;0.22;;;;;;;;;;5039663;28;20044;-72
2022/11/25 14:13:23;;;;;;;2.70;0.22;;;;;;;;;;5048145;28;20500;-72
2022/11/25 14:15:57;;;;;;;0.30;0.20;;;;;;;;;;5048176;28;20585;-72
2022/11/25 14:18:48;;;;;;;0.50;0.50;;;;;;;;;;5044919;28;20102;-72
2022/11/25 14:21:55;;;;;;;1.75;0.63;;;;;;;;;;5043492;28;20521;-72
2022/11/25 14:24:29;;;;;;;0.75;0.75;;;;;;;;;;5044487;28;20512;-72
2022/11/25 14:26:59;;;;;;;3.20;0.28;;;;;;;;;;5042284;28;20132;-72
2022/11/25 14:29:30;;;;;;;0.40;0.22;;;;;;;;;;5035092;28;20497;-72
2022/11/25 14:32:02;;;;;;;1.13;0.30;;;;;;;;;;5041173;28;20057;-72
2022/11/25 14:34:33;;;;;;;0.10;0.10;;;;;;;;;;5046491;28;20115;-71
2022/11/25 14:37:08;;;;;;;2.38;0.22;;;;;;;;;;5043079;28;20566;-72
2022/11/25 14:39:41;;;;;;;0.20;0.20;;;;;;;;;;5045586;28;20115;-72
2022/11/25 14:42:11;;;;;;;0.30;0.20;;;;;;;;;;5050766;28;20083;-72
2022/11/25 14:44:41;;;;;;;2.60;0.38;;;;;;;;;;5048303;28;20045;-72
2022/11/25 14:47:10;;;;;;;0.25;0.20;;;;;;;;;;5044576;28;20048;-71
2022/11/25 14:49:46;;;;;;;0.77;0.77;;;;;;;;;;5055260;28;20075;-71
2022/11/25 14:52:33;;;;;;;0.10;0.10;;;;;;;;;;5051988;28;20044;-71
2022/11/25 14:55:05;;;;;;;3.92;0.32;;;;;;;;;;5050902;28;20045;-71
2022/11/25 14:57:35;;;;;;;1.48;0.73;;;;;;;;;;5042451;28;20049;-71
2022/11/25 15:00:06;;;;;;;0.20;0.20;;;;;;;;;;5041997;28;20513;-71
2022/11/25 15:02:36;;;;;;;0.30;0.30;;;;;;;;;;5049187;28;20041;-70
2022/11/25 15:05:18;;;;;;;3.28;0.43;;;;;;;;;;5048872;28;20064;-71
2022/11/25 15:07:56;;;;;;;0.20;0.20;;;;;;;;;;5049244;28;20086;-70
2022/11/25 15:10:43;;;;;;;0.55;0.30;;;;;;;;;;5049735;28;20043;-70
2022/11/25 15:13:30;;;;;;;0.45;0.43;;;;;;;;;;5040250;28;20049;-70
2022/11/25 15:16:01;;;;;;;1.88;0.25;;;;;;;;;;5036275;28;20045;-70
2022/11/25 15:18:29;;;;;;;2.15;0.52;;;;;;;;;;5050248;28;20567;-70
2022/11/25 15:20:59;;;;;;;0.43;0.35;;;;;;;;;;5048992;28;20049;-71